createdAt,value
2019-05-25T00:02:12.086Z,7.07
2019-05-25T00:04:40.505Z,7.47
2019-05-25T00:07:08.913Z,6.37
2019-05-25T00:09:37.327Z,5.60
2019-05-25T00:12:05.733Z,7.57
2019-05-25T00:14:34.148Z,7.33
2019-05-25T00:17:02.546Z,9.27
2019-05-25T00:19:30.968Z,5.43
2019-05-25T00:21:59.376Z,4.50
2019-05-25T00:24:27.787Z,4.87
2019-05-25T00:26:56.191Z,6.40
2019-05-25T00:29:24.611Z,10.50
2019-05-25T00:31:53.030Z,5.43
2019-05-25T00:34:21.447Z,6.10
2019-05-25T00:36:49.878Z,9.13
2019-05-25T00:39:18.258Z,6.47
2019-05-25T00:41:46.659Z,6.87
2019-05-25T00:44:15.074Z,6.30
2019-05-25T00:46:43.474Z,5.83
2019-05-25T00:49:11.902Z,8.73
2019-05-25T00:51:40.306Z,9.00
2019-05-25T00:54:08.723Z,4.40
2019-05-25T00:56:37.135Z,8.53
2019-05-25T00:59:05.559Z,6.17
2019-05-25T01:01:33.980Z,8.37
2019-05-25T01:04:02.394Z,8.63
2019-05-25T01:06:30.800Z,4.50
2019-05-25T01:08:59.217Z,8.63
2019-05-25T01:11:27.625Z,10.70
2019-05-25T01:13:56.043Z,6.37
2019-05-25T01:16:24.491Z,10.30
2019-05-25T01:18:52.908Z,4.13
2019-05-25T01:21:21.321Z,8.70
2019-05-25T01:23:49.726Z,7.57
2019-05-25T01:26:18.134Z,6.30
2019-05-25T01:28:46.548Z,8.00
2019-05-25T01:31:14.964Z,4.70
2019-05-25T01:33:43.388Z,5.53
2019-05-25T01:36:11.786Z,4.70
2019-05-25T01:38:40.197Z,4.97
2019-05-25T01:41:08.611Z,6.73
2019-05-25T01:43:37.012Z,4.83
2019-05-25T01:46:05.437Z,4.97
2019-05-25T01:48:33.828Z,4.27
2019-05-25T01:51:02.249Z,4.70
2019-05-25T01:53:30.648Z,9.23
2019-05-25T01:55:59.068Z,10.83
2019-05-25T01:58:27.466Z,8.60
2019-05-25T02:00:55.888Z,8.30
2019-05-25T02:03:24.294Z,9.50
2019-05-25T02:05:52.742Z,5.27
2019-05-25T02:08:21.169Z,10.87
2019-05-25T02:10:49.589Z,6.97
2019-05-25T02:13:18.013Z,5.80
2019-05-25T02:15:46.712Z,10.93
2019-05-25T02:18:15.123Z,6.53
2019-05-25T02:20:43.542Z,7.37
2019-05-25T02:23:11.947Z,11.80
2019-05-25T02:25:41.035Z,8.47
2019-05-25T02:28:09.444Z,11.67
2019-05-25T02:30:37.890Z,9.23
2019-05-25T02:33:06.271Z,9.47
2019-05-25T02:35:34.706Z,9.97
2019-05-25T02:38:03.121Z,13.83
2019-05-25T02:40:31.539Z,6.47
2019-05-25T02:43:00.110Z,9.67
2019-05-25T02:45:28.601Z,13.07
2019-05-25T02:47:57.014Z,11.23
2019-05-25T02:50:25.581Z,7.70
2019-05-25T02:52:53.982Z,7.57
2019-05-25T02:55:33.611Z,8.10
2019-05-25T02:57:52.527Z,12.43
2019-05-25T03:00:32.438Z,10.60
2019-05-25T03:03:02.001Z,9.63
2019-05-25T03:05:30.476Z,8.40
2019-05-25T03:07:58.870Z,9.40
2019-05-25T03:10:28.236Z,12.50
2019-05-25T03:12:56.906Z,10.87
2019-05-25T03:15:25.322Z,7.70
2019-05-25T03:17:53.734Z,6.60
2019-05-25T03:20:22.226Z,9.80
2019-05-25T03:22:50.641Z,10.97
2019-05-25T03:25:19.494Z,8.27
2019-05-25T03:27:47.896Z,7.40
2019-05-25T03:30:19.376Z,9.73
2019-05-25T03:32:48.418Z,11.50
2019-05-25T03:35:16.839Z,9.37
2019-05-25T03:37:45.243Z,6.60
2019-05-25T03:40:13.726Z,8.33
2019-05-25T03:42:42.128Z,8.47
2019-05-25T03:45:10.543Z,9.10
2019-05-25T03:47:38.942Z,9.20
2019-05-25T03:50:07.494Z,9.93
2019-05-25T03:52:35.952Z,12.67
2019-05-25T03:55:06.799Z,13.60
2019-05-25T03:57:35.226Z,10.57
2019-05-25T04:00:07.488Z,11.93
2019-05-25T04:02:35.943Z,15.93
2019-05-25T04:05:05.896Z,10.67
2019-05-25T04:07:34.317Z,12.97
2019-05-25T04:10:02.772Z,13.47
2019-05-25T04:12:31.161Z,12.10
2019-05-25T04:14:59.572Z,10.57
2019-05-25T04:17:27.992Z,12.60
2019-05-25T04:19:56.396Z,14.47
2019-05-25T04:22:24.821Z,17.70
2019-05-25T04:24:53.233Z,14.77
2019-05-25T04:27:21.664Z,15.80
2019-05-25T04:29:50.081Z,16.47
2019-05-25T04:32:18.512Z,18.37
2019-05-25T04:34:46.924Z,13.33
2019-05-25T04:37:15.362Z,18.40
2019-05-25T04:39:43.784Z,23.40
2019-05-25T04:42:12.204Z,15.57
2019-05-25T04:44:40.638Z,16.80
2019-05-25T04:47:09.076Z,19.53
2019-05-25T04:49:37.478Z,21.43
2019-05-25T04:52:05.910Z,23.07
2019-05-25T04:54:34.334Z,19.00
2019-05-25T04:57:02.893Z,22.47
2019-05-25T04:59:31.355Z,23.33
2019-05-25T05:01:59.776Z,19.30
2019-05-25T05:04:28.188Z,20.37
2019-05-25T05:06:56.616Z,19.67
2019-05-25T05:09:25.025Z,19.93
2019-05-25T05:11:53.444Z,17.93
2019-05-25T05:14:21.857Z,19.80
2019-05-25T05:16:50.298Z,20.17
2019-05-25T05:19:18.718Z,20.90
2019-05-25T05:21:47.137Z,22.07
2019-05-25T05:24:15.550Z,19.97
2019-05-25T05:26:55.318Z,25.30
2019-05-25T05:29:14.123Z,16.33
2019-05-25T05:31:42.548Z,19.70
2019-05-25T05:34:10.974Z,18.93
2019-05-25T05:36:39.401Z,17.23
2019-05-25T05:39:08.953Z,18.77
2019-05-25T05:41:40.489Z,18.93
2019-05-25T05:44:08.978Z,16.67
2019-05-25T05:46:38.945Z,19.73
2019-05-25T05:49:09.871Z,48.67
2019-05-25T05:51:38.297Z,25.97
2019-05-25T05:54:06.710Z,16.70
2019-05-25T05:56:35.142Z,13.30
2019-05-25T05:59:03.643Z,21.13
2019-05-25T06:01:32.057Z,22.60
2019-05-25T06:04:00.477Z,17.13
2019-05-25T06:06:28.936Z,15.87
2019-05-25T06:08:57.326Z,15.93
2019-05-25T06:11:25.733Z,15.27
2019-05-25T06:13:54.157Z,17.67
2019-05-25T06:16:22.566Z,13.53
2019-05-25T06:18:50.990Z,17.30
2019-05-25T06:21:19.469Z,15.40
2019-05-25T06:23:47.894Z,15.83
2019-05-25T06:26:16.318Z,13.73
2019-05-25T06:28:44.733Z,12.73
2019-05-25T06:31:13.209Z,10.17
2019-05-25T06:33:41.627Z,9.47
2019-05-25T06:36:10.030Z,10.27
2019-05-25T06:38:38.455Z,11.03
2019-05-25T06:41:08.742Z,11.67
2019-05-25T06:43:37.005Z,9.77
2019-05-25T06:46:05.549Z,9.83
2019-05-25T06:48:33.971Z,12.13
2019-05-25T06:51:02.393Z,19.07
2019-05-25T06:53:30.823Z,11.03
2019-05-25T06:55:59.229Z,12.43
2019-05-25T06:58:27.648Z,9.83
2019-05-25T07:00:56.056Z,10.00
2019-05-25T07:03:24.497Z,12.27
2019-05-25T07:05:52.905Z,10.33
2019-05-25T07:08:21.335Z,8.57
2019-05-25T07:10:50.307Z,9.20
2019-05-25T07:13:18.737Z,10.33
2019-05-25T07:15:47.144Z,8.03
2019-05-25T07:18:15.572Z,8.77
2019-05-25T07:20:43.979Z,7.70
2019-05-25T07:25:54.304Z,10.33
2019-05-25T07:28:22.795Z,10.73
2019-05-25T07:30:51.198Z,6.37
2019-05-25T07:33:19.616Z,7.40
2019-05-25T07:35:48.032Z,7.87
2019-05-25T07:38:16.450Z,6.63
2019-05-25T07:40:44.871Z,8.23
2019-05-25T07:43:13.305Z,11.90
2019-05-25T07:45:42.007Z,9.00
2019-05-25T07:48:10.413Z,11.93
2019-05-25T07:50:38.811Z,7.83
2019-05-25T07:53:07.239Z,7.70
2019-05-25T07:55:35.646Z,10.47
2019-05-25T07:58:16.498Z,7.93
2019-05-25T08:00:34.272Z,7.53
2019-05-25T08:03:02.682Z,7.37
2019-05-25T08:05:31.179Z,8.67
2019-05-25T08:07:59.615Z,7.00
2019-05-25T08:10:28.376Z,8.73
2019-05-25T08:12:56.779Z,6.17
2019-05-25T08:15:25.192Z,7.83
2019-05-25T08:17:53.599Z,8.80
2019-05-25T08:20:22.023Z,9.73
2019-05-25T08:22:50.426Z,7.87
2019-05-25T08:25:18.841Z,9.87
2019-05-25T08:27:47.251Z,10.00
2019-05-25T08:30:15.902Z,6.27
2019-05-25T08:32:44.318Z,7.00
2019-05-25T08:35:12.973Z,6.60
2019-05-25T08:37:41.372Z,6.77
2019-05-25T08:40:10.328Z,8.80
2019-05-25T08:42:38.725Z,7.07
2019-05-25T08:45:07.986Z,8.20
2019-05-25T08:47:36.517Z,7.80
2019-05-25T08:50:08.679Z,6.03
2019-05-25T08:52:37.537Z,9.30
2019-05-25T08:55:07.856Z,7.07
2019-05-25T08:57:36.249Z,6.30
2019-05-25T09:00:06.204Z,7.93
2019-05-25T09:02:34.608Z,7.97
2019-05-25T09:05:03.709Z,7.77
2019-05-25T09:07:32.114Z,10.30
2019-05-25T09:10:00.571Z,8.43
2019-05-25T09:12:28.994Z,10.43
2019-05-25T09:14:57.405Z,8.00
2019-05-25T09:17:25.806Z,6.73
2019-05-25T09:19:54.223Z,8.23
2019-05-25T09:22:22.632Z,8.17
2019-05-25T09:24:51.071Z,6.20
2019-05-25T09:27:19.539Z,6.37
2019-05-25T09:29:47.955Z,6.67
2019-05-25T09:32:16.367Z,7.27
2019-05-25T09:34:44.792Z,8.97
2019-05-25T09:37:13.196Z,6.60
2019-05-25T09:39:41.625Z,7.07
2019-05-25T09:42:10.027Z,4.90
2019-05-25T09:44:38.477Z,7.27
2019-05-25T09:47:06.880Z,7.37
2019-05-25T09:49:35.294Z,6.13
2019-05-25T09:52:03.766Z,9.63
2019-05-25T09:54:32.213Z,5.13
2019-05-25T09:57:00.653Z,8.43
2019-05-25T09:59:29.063Z,5.83
2019-05-25T10:01:57.480Z,8.20
2019-05-25T10:04:25.910Z,13.97
2019-05-25T10:06:54.333Z,8.60
2019-05-25T10:09:22.740Z,6.10
2019-05-25T10:11:51.162Z,9.20
2019-05-25T10:14:19.564Z,7.73
2019-05-25T10:16:47.989Z,5.30
2019-05-25T10:19:16.397Z,7.77
2019-05-25T10:21:44.816Z,5.73
2019-05-25T10:24:13.221Z,6.10
2019-05-25T10:26:41.634Z,6.63
2019-05-25T10:29:10.035Z,7.63
2019-05-25T10:31:38.454Z,8.63
2019-05-25T10:34:06.855Z,5.30
2019-05-25T10:36:35.269Z,5.77
2019-05-25T10:39:05.191Z,5.63
2019-05-25T10:41:33.603Z,5.87
2019-05-25T10:44:02.019Z,8.77
2019-05-25T10:46:30.457Z,7.87
2019-05-25T10:48:58.858Z,5.53
2019-05-25T10:51:27.284Z,7.27
2019-05-25T10:53:55.691Z,8.13
2019-05-25T10:56:24.115Z,7.57
2019-05-25T10:58:52.532Z,4.70
2019-05-25T11:01:20.975Z,6.77
2019-05-25T11:03:49.364Z,8.83
2019-05-25T11:06:18.060Z,5.73
2019-05-25T11:08:46.460Z,6.30
2019-05-25T11:11:14.879Z,7.27
2019-05-25T11:13:43.289Z,5.33
2019-05-25T11:16:11.744Z,6.87
2019-05-25T11:18:40.127Z,6.53
2019-05-25T11:21:08.545Z,8.07
2019-05-25T11:23:37.026Z,5.83
2019-05-25T11:26:05.456Z,6.53
2019-05-25T11:28:33.860Z,6.03
2019-05-25T11:31:02.280Z,6.90
2019-05-25T11:33:30.688Z,8.30
2019-05-25T11:35:59.109Z,8.07
2019-05-25T11:38:27.512Z,4.67
2019-05-25T11:40:55.931Z,5.87
2019-05-25T11:43:24.333Z,6.73
2019-05-25T11:45:52.762Z,5.13
2019-05-25T11:48:21.187Z,7.83
2019-05-25T11:50:49.602Z,6.70
2019-05-25T11:53:18.007Z,7.87
2019-05-25T11:55:46.410Z,7.13
2019-05-25T11:58:14.832Z,7.40
2019-05-25T12:00:43.231Z,5.07
2019-05-25T12:03:11.650Z,7.63
2019-05-25T12:05:40.061Z,8.03
2019-05-25T12:08:08.561Z,6.87
2019-05-25T12:10:36.962Z,6.93
2019-05-25T12:13:05.382Z,7.17
2019-05-25T12:15:33.791Z,4.83
2019-05-25T12:18:02.275Z,6.60
2019-05-25T12:20:30.692Z,5.90
2019-05-25T12:22:59.124Z,7.60
2019-05-25T12:25:27.538Z,4.83
2019-05-25T12:27:55.951Z,6.83
2019-05-25T12:30:39.376Z,4.60
2019-05-25T12:32:54.574Z,5.20
2019-05-25T12:35:22.971Z,8.70
2019-05-25T12:37:51.386Z,5.67
2019-05-25T12:40:20.034Z,9.27
2019-05-25T12:42:48.459Z,5.53
2019-05-25T12:45:17.027Z,7.40
2019-05-25T12:47:45.439Z,3.97
2019-05-25T12:50:14.578Z,3.97
2019-05-25T12:52:42.998Z,6.20
2019-05-25T12:55:11.666Z,5.17
2019-05-25T12:57:40.079Z,5.00
2019-05-25T13:00:16.070Z,7.37
2019-05-25T13:02:39.666Z,7.27
2019-05-25T13:05:08.413Z,5.47
2019-05-25T13:07:36.841Z,6.70
2019-05-25T13:10:07.101Z,8.17
2019-05-25T13:12:35.518Z,9.70
2019-05-25T13:15:07.813Z,7.93
2019-05-25T13:17:36.246Z,6.30
2019-05-25T13:20:06.274Z,6.03
2019-05-25T13:22:34.691Z,5.57
2019-05-25T13:25:03.467Z,4.70
2019-05-25T13:27:31.886Z,5.43
2019-05-25T13:30:03.088Z,7.20
2019-05-25T13:32:30.450Z,5.83
2019-05-25T13:34:58.858Z,6.00
2019-05-25T13:37:27.270Z,9.13
2019-05-25T13:39:55.678Z,7.23
2019-05-25T13:42:24.092Z,7.73
2019-05-25T13:44:52.517Z,9.17
2019-05-25T13:47:20.953Z,5.30
2019-05-25T13:49:49.350Z,6.83
2019-05-25T13:52:17.771Z,9.17
2019-05-25T13:54:46.189Z,9.97
2019-05-25T13:57:14.597Z,5.97
2019-05-25T13:59:43.022Z,6.40
2019-05-25T14:02:11.427Z,5.77
2019-05-25T14:04:39.839Z,8.00
2019-05-25T14:07:08.241Z,5.47
2019-05-25T14:09:36.656Z,6.30
2019-05-25T14:12:07.627Z,7.93
2019-05-25T14:14:36.092Z,8.33
2019-05-25T14:17:04.557Z,8.27
2019-05-25T14:19:32.995Z,5.67
2019-05-25T14:22:01.482Z,4.93
2019-05-25T14:24:29.899Z,6.73
2019-05-25T14:26:58.307Z,6.67
2019-05-25T14:29:26.733Z,6.53
2019-05-25T14:31:55.130Z,6.27
2019-05-25T14:34:23.561Z,5.50
2019-05-25T14:36:51.981Z,6.80
2019-05-25T14:39:20.397Z,7.60
2019-05-25T14:41:48.866Z,6.53
2019-05-25T14:44:17.285Z,5.00
2019-05-25T14:46:45.688Z,5.13
2019-05-25T14:49:14.111Z,4.80
2019-05-25T14:51:42.516Z,7.10
2019-05-25T14:54:10.931Z,7.70
2019-05-25T14:56:39.343Z,6.43
2019-05-25T14:59:07.764Z,8.03
2019-05-25T15:01:36.235Z,5.13
2019-05-25T15:04:05.234Z,7.60
2019-05-25T15:06:33.643Z,6.17
2019-05-25T15:09:02.069Z,6.80
2019-05-25T15:11:30.501Z,5.43
2019-05-25T15:13:58.903Z,5.83
2019-05-25T15:16:29.026Z,5.47
2019-05-25T15:18:57.449Z,6.67
2019-05-25T15:21:26.338Z,6.83
2019-05-25T15:23:55.021Z,7.97
2019-05-25T15:26:23.422Z,6.17
2019-05-25T15:28:51.855Z,9.17
2019-05-25T15:31:20.257Z,8.33
2019-05-25T15:33:48.672Z,8.87
2019-05-25T15:36:17.075Z,9.47
2019-05-25T15:38:45.498Z,5.00
2019-05-25T15:41:13.900Z,8.07
2019-05-25T15:43:42.329Z,11.13
2019-05-25T15:46:10.727Z,6.83
2019-05-25T15:48:39.146Z,6.60
2019-05-25T15:51:07.688Z,7.80
2019-05-25T15:53:36.161Z,11.33
2019-05-25T15:59:05.509Z,8.87
2019-05-25T16:04:45.622Z,8.33
2019-05-25T16:07:49.848Z,7.50
2019-05-25T16:10:18.318Z,8.20
2019-05-25T16:12:46.727Z,9.13
2019-05-25T16:15:18.207Z,7.33
2019-05-25T16:17:46.611Z,5.27
2019-05-25T16:20:18.070Z,7.97
2019-05-25T16:22:46.476Z,7.93
2019-05-25T16:25:14.903Z,6.77
2019-05-25T16:27:43.307Z,6.27
2019-05-25T16:30:12.074Z,5.33
2019-05-25T16:33:09.945Z,4.43
2019-05-25T16:35:10.791Z,5.07
2019-05-25T16:37:39.590Z,8.90
2019-05-25T16:40:08.861Z,6.03
2019-05-25T16:42:37.293Z,7.17
2019-05-25T16:45:06.653Z,5.73
2019-05-25T16:47:35.594Z,4.60
2019-05-25T16:50:06.352Z,5.00
2019-05-25T16:52:34.758Z,4.50
2019-05-25T16:55:03.746Z,4.63
2019-05-25T16:57:32.150Z,4.17
2019-05-25T17:00:00.592Z,5.23
2019-05-25T17:02:29.655Z,2.63
2019-05-25T17:04:58.090Z,3.67
2019-05-25T17:07:26.477Z,5.97
2019-05-25T17:09:54.968Z,3.13
2019-05-25T17:12:23.354Z,5.47
2019-05-25T17:14:51.784Z,3.60
2019-05-25T17:17:20.187Z,2.30
2019-05-25T17:19:48.598Z,2.43
2019-05-25T17:22:16.998Z,2.90
2019-05-25T17:24:45.418Z,2.47
2019-05-25T17:27:13.832Z,5.37
2019-05-25T17:29:42.239Z,3.33
2019-05-25T17:32:10.707Z,2.63
2019-05-25T17:34:39.129Z,3.13
2019-05-25T17:37:07.549Z,2.27
2019-05-25T17:39:35.962Z,4.83
2019-05-25T17:42:05.117Z,3.20
2019-05-25T17:44:33.525Z,2.77
2019-05-25T17:47:01.956Z,2.97
2019-05-25T17:49:30.372Z,3.13
2019-05-25T17:51:58.791Z,3.37
2019-05-25T17:54:27.199Z,3.77
2019-05-25T17:56:55.636Z,2.97
2019-05-25T17:59:24.021Z,3.43
2019-05-25T18:01:52.438Z,2.03
2019-05-25T18:04:20.835Z,1.97
2019-05-25T18:06:49.258Z,2.80
2019-05-25T18:09:17.674Z,3.43
2019-05-25T18:11:46.086Z,5.80
2019-05-25T18:14:14.496Z,2.43
2019-05-25T18:16:42.920Z,3.23
2019-05-25T18:19:11.327Z,6.00
2019-05-25T18:21:39.752Z,3.37
2019-05-25T18:24:08.220Z,5.17
2019-05-25T18:26:36.620Z,4.40
2019-05-25T18:29:05.028Z,3.90
2019-05-25T18:31:33.462Z,5.10
2019-05-25T18:34:01.902Z,5.00
2019-05-25T18:36:30.332Z,3.27
2019-05-25T18:38:58.735Z,2.27
2019-05-25T18:41:27.234Z,2.00
2019-05-25T18:43:55.632Z,4.20
2019-05-25T18:46:24.057Z,4.07
2019-05-25T18:48:52.459Z,2.10
2019-05-25T18:51:20.881Z,4.27
2019-05-25T18:53:49.301Z,2.60
2019-05-25T18:56:17.729Z,5.67
2019-05-25T18:58:46.148Z,7.23
2019-05-25T19:01:14.571Z,6.13
2019-05-25T19:03:42.978Z,3.37
2019-05-25T19:06:11.396Z,4.17
2019-05-25T19:08:39.820Z,3.67
2019-05-25T19:11:08.239Z,3.00
2019-05-25T19:13:36.646Z,4.60
2019-05-25T19:16:05.072Z,2.77
2019-05-25T19:18:33.468Z,3.57
2019-05-25T19:21:01.887Z,2.43
2019-05-25T19:23:30.286Z,2.27
2019-05-25T19:25:58.714Z,3.47
2019-05-25T19:28:27.145Z,9.07
2019-05-25T19:30:55.557Z,2.67
2019-05-25T19:33:23.997Z,2.30
2019-05-25T19:35:54.436Z,3.43
2019-05-25T19:38:22.546Z,2.50
2019-05-25T19:40:50.969Z,3.07
2019-05-25T19:43:19.397Z,2.33
2019-05-25T19:45:47.804Z,3.83
2019-05-25T19:48:16.229Z,4.47
2019-05-25T19:50:44.635Z,4.57
2019-05-25T19:53:13.049Z,4.73
2019-05-25T19:55:41.522Z,6.53
2019-05-25T19:58:09.953Z,3.40
2019-05-25T20:00:38.343Z,2.70
2019-05-25T20:03:06.770Z,4.83
2019-05-25T20:05:35.159Z,2.63
2019-05-25T20:08:04.115Z,2.83
2019-05-25T20:10:32.546Z,4.70
2019-05-25T20:13:00.967Z,3.50
2019-05-25T20:15:29.376Z,2.27
2019-05-25T20:17:57.789Z,2.47
2019-05-25T20:20:26.191Z,3.90
2019-05-25T20:22:54.619Z,3.53
2019-05-25T20:25:23.024Z,3.33
2019-05-25T20:27:51.445Z,2.47
2019-05-25T20:30:19.925Z,3.83
2019-05-25T20:32:48.344Z,3.73
2019-05-25T20:35:31.780Z,2.20
2019-05-25T20:37:47.521Z,2.57
2019-05-25T20:40:16.383Z,3.00
2019-05-25T20:42:44.948Z,3.60
2019-05-25T20:45:13.508Z,3.53
2019-05-25T20:47:41.922Z,2.43
2019-05-25T20:50:10.770Z,4.43
2019-05-25T20:52:39.176Z,2.80
2019-05-25T20:55:07.826Z,6.47
2019-05-25T20:57:36.245Z,2.57
2019-05-25T21:00:06.090Z,3.93
2019-05-25T21:02:34.507Z,5.13
2019-05-25T21:05:02.912Z,1.73
2019-05-25T21:07:31.332Z,1.63
2019-05-25T21:09:59.737Z,5.33
2019-05-25T21:12:28.154Z,4.97
2019-05-25T21:14:56.558Z,7.97
2019-05-25T21:17:24.983Z,2.63
2019-05-25T21:19:53.393Z,3.77
2019-05-25T21:22:21.818Z,1.50
2019-05-25T21:24:50.215Z,2.57
2019-05-25T21:27:18.626Z,2.63
2019-05-25T21:29:47.052Z,6.33
2019-05-25T21:32:15.467Z,2.17
2019-05-25T21:34:43.884Z,5.27
2019-05-25T21:37:12.284Z,4.00
2019-05-25T21:39:40.699Z,2.00
2019-05-25T21:42:09.099Z,5.93
2019-05-25T21:44:37.515Z,2.77
2019-05-25T21:47:05.919Z,9.90
2019-05-25T21:49:34.347Z,4.27
2019-05-25T21:52:02.743Z,1.67
2019-05-25T21:54:31.160Z,3.23
2019-05-25T21:56:59.562Z,4.20
2019-05-25T21:59:27.991Z,5.47
2019-05-25T22:01:56.393Z,3.53
2019-05-25T22:04:24.807Z,2.37
2019-05-25T22:06:53.209Z,1.90
2019-05-25T22:09:21.637Z,3.07
2019-05-25T22:11:50.043Z,3.23
2019-05-25T22:14:18.460Z,2.77
2019-05-25T22:16:46.867Z,4.20
2019-05-25T22:19:15.282Z,2.53
2019-05-25T22:21:46.054Z,3.03
2019-05-25T22:24:13.822Z,3.93
2019-05-25T22:26:42.223Z,3.50
2019-05-25T22:29:10.638Z,5.93
2019-05-25T22:31:39.104Z,1.63
2019-05-25T22:34:07.529Z,6.97
2019-05-25T22:36:40.762Z,3.80
2019-05-25T22:39:08.111Z,2.73
2019-05-25T22:41:36.523Z,2.10
2019-05-25T22:44:05.208Z,3.63
2019-05-25T22:46:33.653Z,4.73
2019-05-25T22:49:02.073Z,3.80
2019-05-25T22:51:30.476Z,6.20
2019-05-25T22:53:58.897Z,3.03
2019-05-25T22:56:27.310Z,5.87
2019-05-25T22:58:55.731Z,3.17
2019-05-25T23:01:24.134Z,2.60
2019-05-25T23:03:52.552Z,4.07
2019-05-25T23:06:20.955Z,5.80
2019-05-25T23:08:49.374Z,3.13
2019-05-25T23:11:17.769Z,3.57
2019-05-25T23:13:46.197Z,2.80
2019-05-25T23:16:14.611Z,7.07
2019-05-25T23:18:43.014Z,5.73
2019-05-25T23:21:11.419Z,4.13
2019-05-25T23:23:39.817Z,2.70
2019-05-25T23:26:08.232Z,2.67
2019-05-25T23:28:36.634Z,1.90
2019-05-25T23:31:05.062Z,8.13
2019-05-25T23:33:33.472Z,4.00
2019-05-25T23:36:01.960Z,4.63
2019-05-25T23:38:30.374Z,2.90
2019-05-25T23:40:58.810Z,3.00
2019-05-25T23:43:27.279Z,2.50
2019-05-25T23:45:55.700Z,5.70
2019-05-25T23:48:24.101Z,3.23
2019-05-25T23:50:52.520Z,3.10
2019-05-25T23:53:20.994Z,3.50
2019-05-25T23:55:49.429Z,7.27
2019-05-25T23:58:17.852Z,3.67
